Roseau, Dominica
Current Conditions -  °F | °C
As of 8:00 PM on Friday 28 Nov 2014 (Local Time) from TDCF Reporting Station
Scattered Clouds Scattered Clouds  
Wind Chill: 77°   Ceiling: Unl
Heat Index: 79°   Visibility: 6mi
Dew Point: 70°   Wind: 2mph
Humidity: 78%   Direction: NA
Pressure: 29.91"   Gusts: NA
Location:  15.3°N, 61.39°W
Report Text: TDCF 290000Z VRB02KT 9999 SCT022 25/21 Q1013
Loading
Personal Weather Stations






























Interactive Weather Map New forecast layout! Learn more

10-Day Weather Forecast

Advertisements
Track Severe Weather on mobile